PWSweather.com
Personal Weather Stations
Station Observations

OlomoucCZ

Lat: 49.5936202181, Lon: 17.2276005149

Elevation: 752

Station Type: Davis Vantage Pro 2 Activ

http://infopocasi-olomouc.cz

High Low Average
Temperature 43.6°F6.4°C 24.8°F-4.0°C 35.0°F1.7°C
Dew Point 36.4°F2.4°C 21.8°F-5.7°C 28.9°F-1.7°C
Winds 15.0 mph 24.1 kmh Calm Calm 6.0 mph W9.7 kmh W
Wind Gusts 23.0 mph37.0 kmh -- 10.0 mph16.1 kmh
Humidity 88% 64% 78%
Pressure 30.16 in1021.3 mb 29.70 in1005.8 mb -
Precipitation 0.00 in0.0 mm - -
Hour Temp Dew Point Humidity Winds Wind Gusts Pressure Precip Precip Rate Daily Precip Total
12:00 AM 43.1°F6.2°C 36.4°F2.4°C 77% 4.6 mph S7.4 kmh S 15.0 mph24.1 kmh 29.70 in1005.8 mb - 0.00 in0.0 mm 0.00 in0.0 mm
12:30 AM 43.6°F6.4°C 35.5°F1.9°C 73% 6.9 mph SW11.1 kmh SW 12.7 mph20.4 kmh 29.70 in1005.8 mb - 0.00 in0.0 mm 0.00 in0.0 mm
01:00 AM 43.2°F6.2°C 35.1°F1.7°C 73% 5.8 mph SW9.3 kmh SW 9.2 mph14.8 kmh 29.70 in1005.8 mb - 0.00 in0.0 mm 0.00 in0.0 mm
01:30 AM 42.4°F5.8°C 35.0°F1.7°C 75% 2.3 mph SW3.7 kmh SW 4.6 mph7.4 kmh 29.71 in1006.1 mb - 0.00 in0.0 mm 0.00 in0.0 mm
02:00 AM 42.0°F5.6°C 35.0°F1.7°C 76% 2.3 mph S3.7 kmh S 4.6 mph7.4 kmh 29.71 in1006.1 mb - 0.00 in0.0 mm 0.00 in0.0 mm
02:30 AM 41.0°F5.0°C 35.0°F1.7°C 79% 1.2 mph S1.9 kmh S 3.5 mph5.6 kmh 29.73 in1006.8 mb - 0.00 in0.0 mm 0.00 in0.0 mm
03:00 AM 40.6°F4.8°C 35.2°F1.8°C 81% 3.5 mph SW5.6 kmh SW 4.6 mph7.4 kmh 29.73 in1006.8 mb - 0.00 in0.0 mm 0.00 in0.0 mm
03:30 AM 39.7°F4.3°C 35.0°F1.7°C 83% 8.1 mph W13.0 kmh W 12.7 mph20.4 kmh 29.75 in1007.5 mb - 0.00 in0.0 mm 0.00 in0.0 mm
04:00 AM 39.1°F3.9°C 34.7°F1.5°C 84% 5.8 mph NW9.3 kmh NW 10.4 mph16.7 kmh 29.75 in1007.5 mb - 0.00 in0.0 mm 0.00 in0.0 mm
04:30 AM 38.7°F3.7°C 34.0°F1.1°C 83% 5.8 mph NW9.3 kmh NW 6.9 mph11.1 kmh 29.75 in1007.5 mb - 0.00 in0.0 mm 0.00 in0.0 mm
05:00 AM 38.1°F3.4°C 33.7°F0.9°C 84% 2.3 mph NW3.7 kmh NW 2.3 mph3.7 kmh 29.75 in1007.5 mb - 0.00 in0.0 mm 0.00 in0.0 mm
05:30 AM 38.3°F3.5°C 33.0°F0.6°C 81% 4.6 mph WSW7.4 kmh WSW 5.8 mph9.3 kmh 29.77 in1008.1 mb - 0.00 in0.0 mm 0.00 in0.0 mm
06:00 AM 37.2°F2.9°C 30.7°F-0.7°C 77% 11.5 mph NW18.5 kmh NW 17.3 mph27.8 kmh 29.79 in1008.8 mb - 0.00 in0.0 mm 0.00 in0.0 mm
06:30 AM 36.3°F2.4°C 29.8°F-1.2°C 77% 9.2 mph W14.8 kmh W 19.6 mph31.5 kmh 29.81 in1009.5 mb - 0.00 in0.0 mm 0.00 in0.0 mm
07:00 AM 35.6°F2.0°C 29.7°F-1.3°C 79% 10.4 mph W16.7 kmh W 12.7 mph20.4 kmh 29.81 in1009.5 mb - 0.00 in0.0 mm 0.00 in0.0 mm
07:30 AM 35.2°F1.8°C 30.0°F-1.1°C 81% 4.6 mph WNW7.4 kmh WNW 8.1 mph13.0 kmh 29.84 in1010.5 mb - 0.00 in0.0 mm 0.00 in0.0 mm
08:00 AM 34.7°F1.5°C 30.1°F-1.1°C 83% 3.5 mph NW5.6 kmh NW 3.5 mph5.6 kmh 29.85 in1010.8 mb - 0.00 in0.0 mm 0.00 in0.0 mm
08:30 AM 35.3°F1.8°C 30.1°F-1.1°C 81% 4.6 mph WNW7.4 kmh WNW 9.2 mph14.8 kmh 29.86 in1011.2 mb - 0.00 in0.0 mm 0.00 in0.0 mm
09:00 AM 35.7°F2.1°C 29.8°F-1.2°C 79% 6.9 mph NW11.1 kmh NW 8.1 mph13.0 kmh 29.88 in1011.9 mb - 0.00 in0.0 mm 0.00 in0.0 mm
09:30 AM 35.9°F2.2°C 30.0°F-1.1°C 79% 11.5 mph W18.5 kmh W 16.1 mph25.9 kmh 29.90 in1012.5 mb - 0.00 in0.0 mm 0.00 in0.0 mm
10:00 AM 35.3°F1.8°C 30.1°F-1.1°C 81% 10.4 mph NW16.7 kmh NW 15.0 mph24.1 kmh 29.92 in1013.2 mb - 0.00 in0.0 mm 0.00 in0.0 mm
10:30 AM 36.4°F2.4°C 30.5°F-0.8°C 79% 11.5 mph WNW18.5 kmh WNW 16.1 mph25.9 kmh 29.92 in1013.2 mb - 0.00 in0.0 mm 0.00 in0.0 mm
11:00 AM 37.3°F2.9°C 30.4°F-0.9°C 76% 11.5 mph WNW18.5 kmh WNW 12.7 mph20.4 kmh 29.93 in1013.5 mb - 0.00 in0.0 mm 0.00 in0.0 mm
11:30 AM 38.9°F3.8°C 30.6°F-0.8°C 72% 6.9 mph NW11.1 kmh NW 11.5 mph18.5 kmh 29.93 in1013.5 mb - 0.00 in0.0 mm 0.00 in0.0 mm
12:00 PM 34.7°F1.5°C 30.9°F-0.6°C 86% 11.5 mph NW18.5 kmh NW 19.6 mph31.5 kmh 29.95 in1014.2 mb - 0.00 in0.0 mm 0.00 in0.0 mm
12:30 PM 36.2°F2.3°C 30.6°F-0.8°C 80% 11.5 mph NW18.5 kmh NW 19.6 mph31.5 kmh 29.95 in1014.2 mb - 0.00 in0.0 mm 0.00 in0.0 mm
01:00 PM 35.9°F2.2°C 26.0°F-3.3°C 67% 15.0 mph WNW24.1 kmh WNW 23.0 mph37.0 kmh 29.96 in1014.6 mb - 0.00 in0.0 mm 0.00 in0.0 mm
01:30 PM 36.2°F2.3°C 25.2°F-3.8°C 64% 11.5 mph WNW18.5 kmh WNW 13.8 mph22.2 kmh 29.97 in1014.9 mb - 0.00 in0.0 mm 0.00 in0.0 mm
02:00 PM 36.1°F2.3°C 25.5°F-3.6°C 65% 10.4 mph WNW16.7 kmh WNW 20.7 mph33.3 kmh 29.98 in1015.2 mb - 0.00 in0.0 mm 0.00 in0.0 mm
02:30 PM 35.5°F1.9°C 25.6°F-3.6°C 67% 11.5 mph WNW18.5 kmh WNW 19.6 mph31.5 kmh 30.00 in1015.9 mb - 0.00 in0.0 mm 0.00 in0.0 mm
03:00 PM 35.4°F1.9°C 25.9°F-3.4°C 68% 13.8 mph NW22.2 kmh NW 15.0 mph24.1 kmh 30.01 in1016.3 mb - 0.00 in0.0 mm 0.00 in0.0 mm
03:30 PM 34.8°F1.6°C 26.4°F-3.1°C 71% 4.6 mph WNW7.4 kmh WNW 11.5 mph18.5 kmh 30.02 in1016.6 mb - 0.00 in0.0 mm 0.00 in0.0 mm
04:00 PM 33.4°F0.8°C 26.6°F-3.0°C 76% 6.9 mph WNW11.1 kmh WNW 8.1 mph13.0 kmh 30.03 in1016.9 mb - 0.00 in0.0 mm 0.00 in0.0 mm
04:30 PM 32.5°F0.3°C 26.7°F-2.9°C 79% 8.1 mph WNW13.0 kmh WNW 11.5 mph18.5 kmh 30.05 in1017.6 mb - 0.00 in0.0 mm 0.00 in0.0 mm
05:00 PM 32.0°F0.0°C 26.5°F-3.1°C 80% 6.9 mph W11.1 kmh W 9.2 mph14.8 kmh 30.06 in1017.9 mb - 0.00 in0.0 mm 0.00 in0.0 mm
05:30 PM 31.6°F-0.2°C 26.4°F-3.1°C 81% 4.6 mph NW7.4 kmh NW 6.9 mph11.1 kmh 30.07 in1018.3 mb - 0.00 in0.0 mm 0.00 in0.0 mm
06:00 PM 31.9°F-0.1°C 24.5°F-4.2°C 74% 2.3 mph WNW3.7 kmh WNW 9.2 mph14.8 kmh 30.08 in1018.6 mb - 0.00 in0.0 mm 0.00 in0.0 mm
06:30 PM 31.1°F-0.5°C 24.4°F-4.2°C 76% 3.5 mph NW5.6 kmh NW 4.6 mph7.4 kmh 30.08 in1018.6 mb - 0.00 in0.0 mm 0.00 in0.0 mm
07:00 PM 30.7°F-0.7°C 24.3°F-4.3°C 77% 3.5 mph NW5.6 kmh NW 10.4 mph16.7 kmh 30.09 in1019.0 mb - 0.00 in0.0 mm 0.00 in0.0 mm
07:30 PM 29.9°F-1.2°C 25.1°F-3.8°C 82% 5.8 mph NW9.3 kmh NW 9.2 mph14.8 kmh 30.10 in1019.3 mb - 0.00 in0.0 mm 0.00 in0.0 mm
08:00 PM 29.6°F-1.3°C 24.5°F-4.2°C 81% 1.2 mph NW1.9 kmh NW 4.6 mph7.4 kmh 30.11 in1019.6 mb - 0.00 in0.0 mm 0.00 in0.0 mm
08:30 PM 28.8°F-1.8°C 24.0°F-4.4°C 82% Calm Calm -- 30.13 in1020.3 mb - 0.00 in0.0 mm 0.00 in0.0 mm
09:00 PM 28.1°F-2.2°C 23.6°F-4.7°C 83% Calm Calm -- 30.13 in1020.3 mb - 0.00 in0.0 mm 0.00 in0.0 mm
09:30 PM 27.8°F-2.3°C 23.6°F-4.7°C 84% Calm Calm -- 30.13 in1020.3 mb - 0.00 in0.0 mm 0.00 in0.0 mm
10:00 PM 27.2°F-2.7°C 23.0°F-5.0°C 84% Calm Calm -- 30.14 in1020.7 mb - 0.00 in0.0 mm 0.00 in0.0 mm
10:30 PM 26.5°F-3.1°C 22.9°F-5.1°C 86% Calm Calm -- 30.14 in1020.7 mb - 0.00 in0.0 mm 0.00 in0.0 mm
11:00 PM 25.6°F-3.6°C 22.0°F-5.6°C 86% Calm Calm -- 30.15 in1021.0 mb - 0.00 in0.0 mm 0.00 in0.0 mm
11:30 PM 24.8°F-4.0°C 21.8°F-5.7°C 88% Calm Calm -- 30.16 in1021.3 mb - 0.00 in0.0 mm 0.00 in0.0 mm